createdAt,value
2019-03-12T00:01:05.360Z,0.80
2019-03-12T00:04:06.702Z,0.80
2019-03-12T00:07:08.667Z,1.00
2019-03-12T00:10:09.811Z,0.90
2019-03-12T00:13:12.035Z,0.90
2019-03-12T00:16:14.189Z,0.90
2019-03-12T00:19:16.249Z,0.80
2019-03-12T00:22:17.488Z,0.90
2019-03-12T00:25:19.451Z,0.80
2019-03-12T00:28:21.068Z,0.90
2019-03-12T00:31:22.806Z,0.90
2019-03-12T00:34:23.819Z,1.00
2019-03-12T00:37:33.979Z,0.70
2019-03-12T00:40:36.068Z,0.80
2019-03-12T00:43:38.208Z,0.90
2019-03-12T00:46:40.418Z,0.80
2019-03-12T00:49:42.491Z,0.80
2019-03-12T00:52:44.601Z,0.80
2019-03-12T00:55:45.839Z,0.80
2019-03-12T00:58:46.667Z,0.80
2019-03-12T01:01:57.852Z,0.90
2019-03-12T01:04:59.790Z,0.90
2019-03-12T01:08:02.014Z,0.90
2019-03-12T01:11:03.742Z,0.90
2019-03-12T01:14:05.944Z,0.90
2019-03-12T01:17:07.110Z,0.90
2019-03-12T01:20:08.323Z,0.90
2019-03-12T01:23:09.493Z,0.80
2019-03-12T01:26:11.508Z,0.90
2019-03-12T01:29:13.447Z,0.90
2019-03-12T01:32:15.672Z,1.00
2019-03-12T01:35:16.636Z,0.90
2019-03-12T01:38:22.980Z,0.90
2019-03-12T01:41:34.056Z,0.90
2019-03-12T01:44:35.046Z,1.00
2019-03-12T01:47:42.215Z,1.00
2019-03-12T01:50:49.160Z,0.90
2019-03-12T01:53:51.173Z,0.90
2019-03-12T01:56:53.302Z,0.90
2019-03-12T01:59:54.358Z,1.00
2019-03-12T02:03:04.932Z,1.00
2019-03-12T02:06:06.894Z,0.90
2019-03-12T02:09:09.150Z,0.80
2019-03-12T02:12:11.085Z,0.70
2019-03-12T02:15:13.068Z,0.80
2019-03-12T02:18:15.276Z,0.90
2019-03-12T02:21:18.200Z,1.00
2019-03-12T02:24:20.212Z,1.00
2019-03-12T02:27:22.484Z,0.80
2019-03-12T02:30:23.616Z,0.80
2019-03-12T02:33:30.728Z,0.80
2019-03-12T02:36:32.704Z,0.80
2019-03-12T02:39:34.958Z,0.80
2019-03-12T02:42:35.908Z,0.90
2019-03-12T02:45:47.129Z,0.80
2019-03-12T02:48:48.197Z,0.70
2019-03-12T02:51:55.293Z,0.70
2019-03-12T02:54:57.506Z,0.80
2019-03-12T02:57:58.529Z,1.00
2019-03-12T03:01:08.956Z,0.70
2019-03-12T03:04:16.039Z,0.80
2019-03-12T03:07:21.781Z,0.90
2019-03-12T03:10:23.157Z,0.90
2019-03-12T03:13:34.521Z,0.90
2019-03-12T03:16:45.654Z,0.90
2019-03-12T03:19:47.457Z,0.90
2019-03-12T03:22:49.543Z,1.00
2019-03-12T03:25:51.427Z,0.90
2019-03-12T03:28:53.434Z,1.00
2019-03-12T03:31:55.633Z,0.90
2019-03-12T03:34:57.613Z,1.00
2019-03-12T03:37:58.804Z,1.00
2019-03-12T03:41:06.137Z,1.00
2019-03-12T03:44:08.052Z,1.00
2019-03-12T03:47:10.099Z,0.90
2019-03-12T03:50:12.256Z,1.00
2019-03-12T03:53:14.067Z,0.90
2019-03-12T03:56:15.128Z,0.90
2019-03-12T03:59:26.309Z,1.00
2019-03-12T04:02:27.555Z,1.00
2019-03-12T04:05:38.588Z,1.00
2019-03-12T04:08:39.849Z,0.90
2019-03-12T04:11:40.973Z,1.10
2019-03-12T04:14:43.193Z,1.00
2019-03-12T04:17:44.571Z,1.00
2019-03-12T04:20:51.836Z,1.00
2019-03-12T04:23:54.119Z,1.00
2019-03-12T04:26:41.547Z,1.00
2019-03-12T04:29:43.510Z,1.00
2019-03-12T04:32:45.399Z,0.90
2019-03-12T04:35:46.544Z,0.90
2019-03-12T04:38:56.607Z,0.90
2019-03-12T04:41:58.620Z,0.90
2019-03-12T04:45:00.649Z,1.00
2019-03-12T04:48:02.607Z,0.90
2019-03-12T04:51:04.787Z,0.80
2019-03-12T04:54:06.848Z,1.00
2019-03-12T04:57:08.135Z,0.90
2019-03-12T05:00:15.304Z,0.90
2019-03-12T05:03:16.456Z,1.00
2019-03-12T05:06:19.976Z,0.90
2019-03-12T05:09:21.639Z,0.90
2019-03-12T05:12:22.780Z,0.90
2019-03-12T05:15:28.819Z,1.00
2019-03-12T05:18:40.280Z,0.80
2019-03-12T05:21:44.903Z,1.00
2019-03-12T05:24:45.520Z,1.00
2019-03-12T05:27:47.443Z,1.10
2019-03-12T05:30:48.740Z,0.90
2019-03-12T05:33:51.560Z,1.00
2019-03-12T05:36:53.448Z,1.00
2019-03-12T05:39:54.363Z,1.00
2019-03-12T05:43:05.788Z,1.00
2019-03-12T05:46:07.007Z,1.00
2019-03-12T05:49:18.432Z,1.10
2019-03-12T05:52:20.410Z,1.20
2019-03-12T05:55:22.479Z,1.20
2019-03-12T05:58:24.531Z,1.20
2019-03-12T06:01:26.923Z,1.20
2019-03-12T06:04:28.920Z,1.30
2019-03-12T06:07:30.108Z,1.30
2019-03-12T06:10:40.348Z,1.20
2019-03-12T06:13:41.667Z,1.30
2019-03-12T06:16:55.934Z,1.30
2019-03-12T06:19:57.743Z,1.30
2019-03-12T06:22:59.813Z,1.50
2019-03-12T06:26:00.999Z,1.40
2019-03-12T06:29:08.052Z,1.50
2019-03-12T06:32:30.000Z,1.50
2019-03-12T06:36:00.088Z,1.40
2019-03-12T06:39:15.756Z,1.50
2019-03-12T06:42:39.600Z,1.50
2019-03-12T06:46:06.706Z,1.50
2019-03-12T06:49:28.640Z,1.60
2019-03-12T06:52:52.826Z,1.60
2019-03-12T06:56:17.130Z,1.50
2019-03-12T06:59:44.607Z,1.70
2019-03-12T07:03:06.972Z,1.60
2019-03-12T07:06:37.160Z,1.60
2019-03-12T07:09:58.294Z,1.60
2019-03-12T07:13:25.655Z,1.80
2019-03-12T07:16:48.020Z,1.90
2019-03-12T07:20:20.997Z,1.90
2019-03-12T07:23:45.399Z,2.00
2019-03-12T07:27:07.793Z,2.00
2019-03-12T07:30:35.408Z,2.10
2019-03-12T07:33:34.473Z,2.30
2019-03-12T07:36:41.595Z,2.30
2019-03-12T07:40:03.602Z,2.40
2019-03-12T07:43:30.675Z,2.50
2019-03-12T07:46:44.151Z,2.50
2019-03-12T07:49:59.560Z,2.50
2019-03-12T07:53:22.458Z,2.70
2019-03-12T07:56:50.751Z,2.60
2019-03-12T08:00:19.932Z,2.60
2019-03-12T08:03:31.905Z,2.60
2019-03-12T08:06:42.157Z,2.80
2019-03-12T08:09:51.814Z,2.90
2019-03-12T08:13:12.539Z,2.90
2019-03-12T08:16:20.120Z,3.00
2019-03-12T08:19:42.290Z,3.20
2019-03-12T08:23:12.543Z,3.30
2019-03-12T08:26:39.838Z,3.30
2019-03-12T08:29:47.699Z,3.20
2019-03-12T08:33:10.367Z,3.30
2019-03-12T08:36:40.503Z,3.40
2019-03-12T08:39:52.423Z,3.50
2019-03-12T08:43:15.889Z,3.50
2019-03-12T08:46:38.116Z,3.50
2019-03-12T08:50:08.335Z,3.40
2019-03-12T08:53:30.825Z,3.50
2019-03-12T08:56:58.088Z,3.50
2019-03-12T09:00:25.358Z,3.50
2019-03-12T09:03:47.685Z,3.50
2019-03-12T09:07:17.722Z,3.70
2019-03-12T09:10:24.379Z,3.70
2019-03-12T09:13:48.964Z,4.00
2019-03-12T09:17:13.061Z,3.90
2019-03-12T09:20:24.665Z,4.10
2019-03-12T09:23:26.498Z,4.20
2019-03-12T09:26:51.564Z,4.30
2019-03-12T09:30:04.712Z,4.20
2019-03-12T09:33:02.992Z,4.30
2019-03-12T09:36:27.163Z,4.10
2019-03-12T09:39:39.799Z,4.10
2019-03-12T09:43:01.408Z,4.10
2019-03-12T09:46:18.600Z,4.20
2019-03-12T09:49:41.117Z,4.20
2019-03-12T09:53:03.130Z,4.20
2019-03-12T09:56:24.171Z,4.20
2019-03-12T09:59:33.381Z,4.20
2019-03-12T10:02:55.685Z,4.40
2019-03-12T10:06:12.267Z,4.40
2019-03-12T10:09:36.263Z,4.40
2019-03-12T10:12:48.659Z,4.40
2019-03-12T10:16:10.621Z,4.50
2019-03-12T10:19:39.180Z,4.80
2019-03-12T10:23:09.402Z,5.30
2019-03-12T10:26:31.941Z,5.50
2019-03-12T10:30:00.411Z,5.40
2019-03-12T10:33:34.543Z,5.30
2019-03-12T10:36:42.374Z,5.30
2019-03-12T10:40:04.778Z,4.80
2019-03-12T10:43:33.012Z,4.90
2019-03-12T10:46:48.599Z,5.10
2019-03-12T10:49:50.983Z,5.20
2019-03-12T10:52:52.827Z,5.60
2019-03-12T10:55:54.669Z,5.60
2019-03-12T10:58:56.656Z,5.70
2019-03-12T11:01:58.585Z,5.50
2019-03-12T11:05:00.490Z,5.60
2019-03-12T11:08:02.505Z,5.60
2019-03-12T11:11:03.640Z,5.80
2019-03-12T11:14:10.755Z,5.90
2019-03-12T11:17:11.908Z,6.30
2019-03-12T11:20:14.058Z,6.50
2019-03-12T11:23:16.183Z,6.80
2019-03-12T11:26:17.278Z,6.90
2019-03-12T11:29:28.269Z,7.10
2019-03-12T11:32:29.487Z,7.10
2019-03-12T11:35:39.867Z,7.30
2019-03-12T11:38:41.481Z,7.50
2019-03-12T11:41:42.735Z,7.80
2019-03-12T11:44:44.624Z,7.70
2019-03-12T11:47:46.675Z,7.20
2019-03-12T11:50:49.858Z,7.00
2019-03-12T11:53:52.004Z,6.90
2019-03-12T11:56:53.961Z,6.50
2019-03-12T11:59:55.807Z,6.50
2019-03-12T12:03:00.148Z,6.50
2019-03-12T12:05:59.973Z,6.70
2019-03-12T12:09:03.853Z,6.70
2019-03-12T12:12:07.335Z,6.70
2019-03-12T12:15:08.520Z,6.80
2019-03-12T12:18:09.767Z,6.70
2019-03-12T12:21:11.668Z,6.70
2019-03-12T12:24:12.869Z,6.90
2019-03-12T12:27:15.809Z,6.80
2019-03-12T12:30:18.020Z,6.80
2019-03-12T12:33:19.951Z,6.80
2019-03-12T12:36:21.179Z,6.60
2019-03-12T12:39:28.239Z,6.60
2019-03-12T12:42:29.463Z,6.70
2019-03-12T12:45:30.580Z,6.80
2019-03-12T12:48:41.740Z,6.80
2019-03-12T12:51:53.039Z,6.80
2019-03-12T12:54:54.075Z,6.80
2019-03-12T12:57:56.379Z,6.70
2019-03-12T13:01:07.602Z,6.90
2019-03-12T13:04:09.668Z,6.90
2019-03-12T13:07:10.732Z,6.90
2019-03-12T13:10:21.676Z,6.90
2019-03-12T13:13:32.841Z,6.70
2019-03-12T13:16:35.803Z,6.50
2019-03-12T13:19:37.177Z,6.70
2019-03-12T13:22:39.040Z,6.60
2019-03-12T13:25:41.027Z,6.60
2019-03-12T13:28:44.994Z,6.50
2019-03-12T13:31:46.548Z,6.40
2019-03-12T13:34:47.693Z,6.40
2019-03-12T13:37:55.095Z,6.30
2019-03-12T13:41:02.581Z,6.50
2019-03-12T13:44:00.397Z,6.50
2019-03-12T13:47:01.302Z,6.50
2019-03-12T13:50:12.466Z,6.50
2019-03-12T13:53:14.604Z,6.60
2019-03-12T13:56:15.781Z,6.60
2019-03-12T13:59:17.841Z,6.70
2019-03-12T14:02:20.791Z,6.80
2019-03-12T14:05:21.864Z,6.70
2019-03-12T14:08:33.184Z,6.70
2019-03-12T14:11:35.090Z,6.60
2019-03-12T14:14:37.011Z,6.70
2019-03-12T14:17:38.919Z,6.50
2019-03-12T14:20:41.926Z,6.70
2019-03-12T14:23:43.792Z,6.70
2019-03-12T14:26:44.940Z,6.70
2019-03-12T14:29:47.015Z,6.60
2019-03-12T14:32:48.984Z,6.70
2019-03-12T14:35:52.286Z,6.70
2019-03-12T14:38:54.168Z,6.40
2019-03-12T14:41:56.319Z,6.40
2019-03-12T14:44:58.407Z,6.40
2019-03-12T14:47:59.600Z,6.50
2019-03-12T14:51:06.925Z,6.50
2019-03-12T14:54:09.066Z,6.40
2019-03-12T14:57:11.041Z,6.60
2019-03-12T14:59:58.702Z,6.50
2019-03-12T15:03:00.053Z,6.60
2019-03-12T15:06:03.230Z,6.40
2019-03-12T15:09:14.359Z,6.50
2019-03-12T15:12:15.576Z,6.30
2019-03-12T15:15:25.851Z,6.20
2019-03-12T15:18:27.063Z,6.10
2019-03-12T15:21:38.144Z,6.00
2019-03-12T15:24:45.353Z,6.00
2019-03-12T15:27:46.212Z,6.00
2019-03-12T15:30:57.459Z,5.90
2019-03-12T15:33:59.367Z,6.00
2019-03-12T15:37:01.596Z,6.00
2019-03-12T15:40:02.672Z,5.80
2019-03-12T15:43:04.580Z,6.00
2019-03-12T15:46:06.722Z,5.90
2019-03-12T15:49:15.063Z,6.00
2019-03-12T15:52:16.928Z,6.00
2019-03-12T15:55:18.023Z,5.80
2019-03-12T15:58:28.924Z,5.50
2019-03-12T16:01:30.987Z,5.60
2019-03-12T16:04:32.992Z,5.40
2019-03-12T16:07:35.090Z,5.40
2019-03-12T16:10:37.043Z,5.30
2019-03-12T16:13:39.015Z,5.20
2019-03-12T16:16:40.368Z,5.20
2019-03-12T16:19:27.824Z,5.20
2019-03-12T16:22:29.447Z,5.10
2019-03-12T16:25:31.532Z,5.10
2019-03-12T16:28:32.699Z,4.90
2019-03-12T16:31:45.878Z,5.00
2019-03-12T16:34:47.983Z,4.90
2019-03-12T16:37:50.199Z,4.90
2019-03-12T16:40:51.131Z,4.90
2019-03-12T16:44:02.292Z,4.70
2019-03-12T16:47:04.354Z,4.70
2019-03-12T16:50:05.599Z,4.70
2019-03-12T16:53:15.698Z,4.70
2019-03-12T16:56:17.600Z,4.60
2019-03-12T16:59:18.804Z,4.60
2019-03-12T17:02:20.730Z,4.50
2019-03-12T17:05:26.112Z,4.60
2019-03-12T17:08:26.584Z,4.50
2019-03-12T17:11:33.675Z,4.50
2019-03-12T17:14:38.985Z,4.40
2019-03-12T17:17:38.817Z,4.30
2019-03-12T17:20:40.599Z,4.30
2019-03-12T17:23:42.852Z,4.30
2019-03-12T17:26:43.928Z,4.20
2019-03-12T17:29:55.316Z,4.20
2019-03-12T17:32:57.134Z,4.30
2019-03-12T17:35:59.288Z,4.20
2019-03-12T17:39:01.291Z,4.10
2019-03-12T17:42:05.448Z,4.20
2019-03-12T17:45:07.376Z,4.20
2019-03-12T17:48:09.273Z,4.20
2019-03-12T17:51:10.314Z,4.10
2019-03-12T17:54:17.622Z,4.10
2019-03-12T17:57:18.861Z,4.10
2019-03-12T18:00:21.167Z,4.00
2019-03-12T18:03:23.048Z,4.00
2019-03-12T18:06:24.231Z,4.10
2019-03-12T18:09:35.384Z,4.00
2019-03-12T18:12:37.360Z,4.00
2019-03-12T18:15:38.660Z,4.00
2019-03-12T18:18:40.717Z,4.00
2019-03-12T18:21:42.814Z,4.10
2019-03-12T18:24:43.792Z,4.10
2019-03-12T18:27:55.036Z,4.20
2019-03-12T18:30:57.136Z,4.20
2019-03-12T18:33:59.004Z,4.30
2019-03-12T18:37:01.099Z,4.30
2019-03-12T18:40:03.171Z,4.30
2019-03-12T18:43:05.189Z,4.30
2019-03-12T18:46:06.504Z,4.30
2019-03-12T18:49:17.543Z,4.30
2019-03-12T18:52:19.491Z,4.30
2019-03-12T18:55:20.548Z,4.30
2019-03-12T18:58:28.554Z,4.30
2019-03-12T19:01:30.702Z,4.30
2019-03-12T19:04:32.634Z,4.30
2019-03-12T19:07:34.599Z,4.40
2019-03-12T19:10:35.867Z,4.30
2019-03-12T19:13:46.894Z,4.20
2019-03-12T19:16:48.977Z,4.20
2019-03-12T19:19:50.267Z,4.50
2019-03-12T19:22:51.540Z,4.30
2019-03-12T19:26:02.592Z,4.30
2019-03-12T19:29:04.552Z,4.40
2019-03-12T19:35:39.820Z,4.40
2019-03-12T19:38:41.360Z,4.40
2019-03-12T19:41:43.459Z,4.40
2019-03-12T19:44:44.424Z,4.40
2019-03-12T19:47:47.668Z,4.40
2019-03-12T19:50:48.742Z,4.40
2019-03-12T19:53:50.752Z,4.30
2019-03-12T19:56:52.842Z,4.40
2019-03-12T19:59:54.900Z,4.20
2019-03-12T20:02:56.138Z,4.20
2019-03-12T20:05:57.947Z,4.10
2019-03-12T20:08:59.191Z,4.20
2019-03-12T20:14:41.472Z,4.10
2019-03-12T20:17:43.718Z,3.90
2019-03-12T20:20:44.821Z,3.90
2019-03-12T20:23:56.253Z,3.80
2019-03-12T20:26:57.316Z,3.80
2019-03-12T20:29:59.333Z,4.00
2019-03-12T20:33:00.551Z,3.90
2019-03-12T20:36:01.691Z,3.90
2019-03-12T20:39:11.976Z,3.90
2019-03-12T20:42:23.923Z,4.00
2019-03-12T20:45:25.937Z,4.00
2019-03-12T20:48:28.095Z,4.00
2019-03-12T20:51:29.158Z,4.00
2019-03-12T20:54:31.103Z,3.90
2019-03-12T20:57:35.570Z,3.80
2019-03-12T21:00:36.936Z,3.90
2019-03-12T21:03:49.341Z,3.80
2019-03-12T21:06:51.304Z,3.70
2019-03-12T21:09:53.251Z,3.90
2019-03-12T21:12:55.595Z,3.90
2019-03-12T21:15:57.854Z,3.90
2019-03-12T21:19:00.083Z,4.00
2019-03-12T21:22:03.958Z,3.90
2019-03-12T21:25:05.188Z,4.00
2019-03-12T21:28:13.257Z,4.10
2019-03-12T21:31:15.124Z,3.80
2019-03-12T21:34:17.555Z,3.90
2019-03-12T21:37:21.691Z,3.80
2019-03-12T21:40:23.068Z,3.80
2019-03-12T21:43:25.031Z,3.90
2019-03-12T21:46:27.293Z,3.80
2019-03-12T21:49:30.226Z,3.70
2019-03-12T21:52:32.128Z,3.70
2019-03-12T21:55:37.479Z,3.80
2019-03-12T21:58:37.576Z,3.70
2019-03-12T22:01:50.946Z,3.80
2019-03-12T22:04:54.744Z,3.70
2019-03-12T22:07:56.957Z,3.70
2019-03-12T22:10:59.001Z,3.70
2019-03-12T22:13:56.612Z,3.70
2019-03-12T22:16:58.463Z,3.80
2019-03-12T22:20:02.323Z,3.80
2019-03-12T22:26:41.299Z,4.00
2019-03-12T22:29:43.273Z,3.80
2019-03-12T22:32:45.546Z,3.80
2019-03-12T22:35:47.679Z,3.80
2019-03-12T22:38:49.576Z,3.90
2019-03-12T22:41:53.695Z,3.90
2019-03-12T22:44:55.660Z,3.70
2019-03-12T22:47:56.716Z,3.90
2019-03-12T22:50:57.895Z,4.00
2019-03-12T22:53:59.835Z,4.10
2019-03-12T22:57:02.263Z,4.20
2019-03-12T23:00:39.831Z,4.20
2019-03-12T23:04:02.084Z,4.40
2019-03-12T23:07:25.208Z,4.30
2019-03-12T23:10:28.597Z,4.30
2019-03-12T23:13:30.692Z,4.30
2019-03-12T23:16:35.339Z,4.50
2019-03-12T23:19:36.489Z,4.40
2019-03-12T23:22:38.564Z,4.30
2019-03-12T23:25:41.099Z,4.40
2019-03-12T23:28:44.947Z,4.60
2019-03-12T23:31:47.073Z,4.60
2019-03-12T23:34:49.048Z,4.50
2019-03-12T23:37:50.721Z,4.50
2019-03-12T23:41:02.487Z,4.70
2019-03-12T23:44:03.365Z,4.70
2019-03-12T23:47:14.921Z,4.60
2019-03-12T23:50:17.039Z,4.70
2019-03-12T23:53:18.046Z,4.60
2019-03-12T23:56:19.001Z,4.60
2019-03-12T23:59:27.034Z,4.50
